sensor_id;sensor_type;location;lat;lon;timestamp;temperature;humidity
11577;DHT22;5844;51.496;6.788;2023-09-19T00:00:37;16.50;1.00
11577;DHT22;5844;51.496;6.788;2023-09-19T00:03:03;16.50;1.00
11577;DHT22;5844;51.496;6.788;2023-09-19T00:05:33;16.50;1.00
11577;DHT22;5844;51.496;6.788;2023-09-19T00:08:00;16.50;1.00
11577;DHT22;5844;51.496;6.788;2023-09-19T00:10:27;16.50;1.00
11577;DHT22;5844;51.496;6.788;2023-09-19T00:12:57;16.50;1.00
11577;DHT22;5844;51.496;6.788;2023-09-19T00:15:26;16.40;1.00
11577;DHT22;5844;51.496;6.788;2023-09-19T00:17:54;16.40;1.00
11577;DHT22;5844;51.496;6.788;2023-09-19T00:20:20;16.40;1.00
11577;DHT22;5844;51.496;6.788;2023-09-19T00:22:49;16.30;1.00
11577;DHT22;5844;51.496;6.788;2023-09-19T00:25:15;16.30;1.00
11577;DHT22;5844;51.496;6.788;2023-09-19T00:27:42;16.30;1.00
11577;DHT22;5844;51.496;6.788;2023-09-19T00:30:09;16.30;1.00
11577;DHT22;5844;51.496;6.788;2023-09-19T00:32:40;16.30;1.00
11577;DHT22;5844;51.496;6.788;2023-09-19T00:35:06;16.30;1.00
11577;DHT22;5844;51.496;6.788;2023-09-19T00:37:34;16.30;1.00
11577;DHT22;5844;51.496;6.788;2023-09-19T00:40:02;16.30;1.00
11577;DHT22;5844;51.496;6.788;2023-09-19T00:42:28;16.20;1.00
11577;DHT22;5844;51.496;6.788;2023-09-19T00:44:54;16.20;1.00
11577;DHT22;5844;51.496;6.788;2023-09-19T00:47:19;16.20;1.00
11577;DHT22;5844;51.496;6.788;2023-09-19T00:49:45;16.10;1.00
11577;DHT22;5844;51.496;6.788;2023-09-19T00:52:14;16.20;1.00
11577;DHT22;5844;51.496;6.788;2023-09-19T00:54:41;16.10;1.00
11577;DHT22;5844;51.496;6.788;2023-09-19T00:57:07;16.10;1.00
11577;DHT22;5844;51.496;6.788;2023-09-19T00:59:35;16.10;1.00
11577;DHT22;5844;51.496;6.788;2023-09-19T01:02:02;16.10;1.00
11577;DHT22;5844;51.496;6.788;2023-09-19T01:04:29;16.10;1.00
11577;DHT22;5844;51.496;6.788;2023-09-19T01:06:55;16.00;1.00
11577;DHT22;5844;51.496;6.788;2023-09-19T01:09:22;16.00;1.00
11577;DHT22;5844;51.496;6.788;2023-09-19T01:11:49;15.90;1.00
11577;DHT22;5844;51.496;6.788;2023-09-19T01:14:30;15.90;1.00
11577;DHT22;5844;51.496;6.788;2023-09-19T01:17:09;15.90;1.00
11577;DHT22;5844;51.496;6.788;2023-09-19T01:22:50;15.80;1.00
11577;DHT22;5844;51.496;6.788;2023-09-19T01:25:34;15.80;1.00
11577;DHT22;5844;51.496;6.788;2023-09-19T01:28:29;15.80;1.00
11577;DHT22;5844;51.496;6.788;2023-09-19T01:30:59;15.70;1.00
11577;DHT22;5844;51.496;6.788;2023-09-19T01:33:27;15.70;1.00
11577;DHT22;5844;51.496;6.788;2023-09-19T01:35:53;15.60;1.00
11577;DHT22;5844;51.496;6.788;2023-09-19T01:38:23;15.70;1.00
11577;DHT22;5844;51.496;6.788;2023-09-19T01:41:07;15.60;1.00
11577;DHT22;5844;51.496;6.788;2023-09-19T01:43:39;15.60;1.00
11577;DHT22;5844;51.496;6.788;2023-09-19T01:46:13;15.60;1.00
11577;DHT22;5844;51.496;6.788;2023-09-19T01:48:43;15.60;1.00
11577;DHT22;5844;51.496;6.788;2023-09-19T01:51:18;15.50;1.00
11577;DHT22;5844;51.496;6.788;2023-09-19T01:53:53;15.50;1.00
11577;DHT22;5844;51.496;6.788;2023-09-19T01:56:36;15.40;1.00
11577;DHT22;5844;51.496;6.788;2023-09-19T01:59:16;15.40;1.00
11577;DHT22;5844;51.496;6.788;2023-09-19T02:01:44;15.40;1.00
11577;DHT22;5844;51.496;6.788;2023-09-19T02:04:10;15.50;1.00
11577;DHT22;5844;51.496;6.788;2023-09-19T02:06:40;15.40;1.00
11577;DHT22;5844;51.496;6.788;2023-09-19T02:09:06;15.40;1.00
11577;DHT22;5844;51.496;6.788;2023-09-19T02:11:32;15.50;1.00
11577;DHT22;5844;51.496;6.788;2023-09-19T02:13:58;15.50;1.00
11577;DHT22;5844;51.496;6.788;2023-09-19T02:16:24;15.40;1.00
11577;DHT22;5844;51.496;6.788;2023-09-19T02:18:50;15.40;1.00
11577;DHT22;5844;51.496;6.788;2023-09-19T02:21:17;15.40;1.00
11577;DHT22;5844;51.496;6.788;2023-09-19T02:23:44;15.40;1.00
11577;DHT22;5844;51.496;6.788;2023-09-19T02:26:10;15.30;1.00
11577;DHT22;5844;51.496;6.788;2023-09-19T02:28:37;15.30;1.00
11577;DHT22;5844;51.496;6.788;2023-09-19T02:31:03;15.30;1.00
11577;DHT22;5844;51.496;6.788;2023-09-19T02:33:31;15.30;1.00
11577;DHT22;5844;51.496;6.788;2023-09-19T02:35:58;15.30;1.00
11577;DHT22;5844;51.496;6.788;2023-09-19T02:38:25;15.30;1.00
11577;DHT22;5844;51.496;6.788;2023-09-19T02:40:52;15.30;1.00
11577;DHT22;5844;51.496;6.788;2023-09-19T02:43:18;15.30;1.00
11577;DHT22;5844;51.496;6.788;2023-09-19T02:45:45;15.30;1.00
11577;DHT22;5844;51.496;6.788;2023-09-19T02:48:12;15.30;1.00
11577;DHT22;5844;51.496;6.788;2023-09-19T02:50:38;15.20;1.00
11577;DHT22;5844;51.496;6.788;2023-09-19T02:53:05;15.30;1.00
11577;DHT22;5844;51.496;6.788;2023-09-19T02:55:32;15.30;1.00
11577;DHT22;5844;51.496;6.788;2023-09-19T02:57:57;15.20;1.00
11577;DHT22;5844;51.496;6.788;2023-09-19T03:00:23;15.20;1.00
11577;DHT22;5844;51.496;6.788;2023-09-19T03:02:54;15.20;1.00
11577;DHT22;5844;51.496;6.788;2023-09-19T03:05:21;15.20;1.00
11577;DHT22;5844;51.496;6.788;2023-09-19T03:07:47;15.20;1.00
11577;DHT22;5844;51.496;6.788;2023-09-19T03:10:20;15.20;1.00
11577;DHT22;5844;51.496;6.788;2023-09-19T03:12:49;15.20;1.00
11577;DHT22;5844;51.496;6.788;2023-09-19T03:15:15;15.20;1.00
11577;DHT22;5844;51.496;6.788;2023-09-19T03:17:45;15.10;1.00
11577;DHT22;5844;51.496;6.788;2023-09-19T03:20:11;15.20;1.00
11577;DHT22;5844;51.496;6.788;2023-09-19T03:22:39;15.20;1.00
11577;DHT22;5844;51.496;6.788;2023-09-19T03:25:06;15.20;1.00
11577;DHT22;5844;51.496;6.788;2023-09-19T03:27:35;15.10;1.00
11577;DHT22;5844;51.496;6.788;2023-09-19T03:30:01;15.10;1.00
11577;DHT22;5844;51.496;6.788;2023-09-19T03:32:31;15.10;1.00
11577;DHT22;5844;51.496;6.788;2023-09-19T03:34:56;15.10;1.00
11577;DHT22;5844;51.496;6.788;2023-09-19T03:37:22;15.10;1.00
11577;DHT22;5844;51.496;6.788;2023-09-19T03:39:48;15.10;1.00
11577;DHT22;5844;51.496;6.788;2023-09-19T03:42:13;15.10;1.00
11577;DHT22;5844;51.496;6.788;2023-09-19T03:44:39;15.10;1.00
11577;DHT22;5844;51.496;6.788;2023-09-19T03:47:04;15.10;1.00
11577;DHT22;5844;51.496;6.788;2023-09-19T03:49:30;15.10;1.00
11577;DHT22;5844;51.496;6.788;2023-09-19T03:51:56;15.10;1.00
11577;DHT22;5844;51.496;6.788;2023-09-19T03:54:22;15.00;1.00
11577;DHT22;5844;51.496;6.788;2023-09-19T03:56:48;15.00;1.00
11577;DHT22;5844;51.496;6.788;2023-09-19T03:59:13;14.90;1.00
11577;DHT22;5844;51.496;6.788;2023-09-19T04:01:39;15.00;1.00
11577;DHT22;5844;51.496;6.788;2023-09-19T04:04:06;15.00;1.00
11577;DHT22;5844;51.496;6.788;2023-09-19T04:06:35;14.90;1.00
11577;DHT22;5844;51.496;6.788;2023-09-19T04:09:04;14.90;1.00
11577;DHT22;5844;51.496;6.788;2023-09-19T04:11:32;14.90;1.00
11577;DHT22;5844;51.496;6.788;2023-09-19T04:13:58;15.00;1.00
11577;DHT22;5844;51.496;6.788;2023-09-19T04:16:24;14.90;1.00
11577;DHT22;5844;51.496;6.788;2023-09-19T04:18:50;14.90;1.00
11577;DHT22;5844;51.496;6.788;2023-09-19T04:21:16;15.00;1.00
11577;DHT22;5844;51.496;6.788;2023-09-19T04:23:42;15.00;1.00
11577;DHT22;5844;51.496;6.788;2023-09-19T04:26:08;15.00;1.00
11577;DHT22;5844;51.496;6.788;2023-09-19T04:28:33;14.90;1.00
11577;DHT22;5844;51.496;6.788;2023-09-19T04:31:00;14.90;1.00
11577;DHT22;5844;51.496;6.788;2023-09-19T04:33:26;14.90;1.00
11577;DHT22;5844;51.496;6.788;2023-09-19T04:35:54;14.90;1.00
11577;DHT22;5844;51.496;6.788;2023-09-19T04:38:21;15.00;1.00
11577;DHT22;5844;51.496;6.788;2023-09-19T04:40:47;15.00;1.00
11577;DHT22;5844;51.496;6.788;2023-09-19T04:43:13;15.00;1.00
11577;DHT22;5844;51.496;6.788;2023-09-19T04:45:41;15.00;1.00
11577;DHT22;5844;51.496;6.788;2023-09-19T04:48:06;15.00;1.00
11577;DHT22;5844;51.496;6.788;2023-09-19T04:50:34;15.10;1.00
11577;DHT22;5844;51.496;6.788;2023-09-19T04:53:00;15.10;1.00
11577;DHT22;5844;51.496;6.788;2023-09-19T04:55:26;15.10;1.00
11577;DHT22;5844;51.496;6.788;2023-09-19T04:57:53;15.10;1.00
11577;DHT22;5844;51.496;6.788;2023-09-19T05:00:20;15.10;1.00
11577;DHT22;5844;51.496;6.788;2023-09-19T05:02:54;15.10;1.00
11577;DHT22;5844;51.496;6.788;2023-09-19T05:05:21;15.10;1.00
11577;DHT22;5844;51.496;6.788;2023-09-19T05:07:48;15.10;1.00
11577;DHT22;5844;51.496;6.788;2023-09-19T05:10:14;15.10;1.00
11577;DHT22;5844;51.496;6.788;2023-09-19T05:12:41;15.10;1.00
11577;DHT22;5844;51.496;6.788;2023-09-19T05:15:07;15.10;1.00
11577;DHT22;5844;51.496;6.788;2023-09-19T05:17:34;15.10;1.00
11577;DHT22;5844;51.496;6.788;2023-09-19T05:20:03;15.00;1.00
11577;DHT22;5844;51.496;6.788;2023-09-19T05:22:57;15.00;1.00
11577;DHT22;5844;51.496;6.788;2023-09-19T05:25:22;15.10;1.00
11577;DHT22;5844;51.496;6.788;2023-09-19T05:27:48;15.10;1.00
11577;DHT22;5844;51.496;6.788;2023-09-19T05:30:16;15.10;1.00
11577;DHT22;5844;51.496;6.788;2023-09-19T05:32:41;15.20;1.00
11577;DHT22;5844;51.496;6.788;2023-09-19T05:35:08;15.20;1.00
11577;DHT22;5844;51.496;6.788;2023-09-19T05:37:35;15.20;1.00
11577;DHT22;5844;51.496;6.788;2023-09-19T05:40:02;15.20;1.00
11577;DHT22;5844;51.496;6.788;2023-09-19T05:42:35;15.30;1.00
11577;DHT22;5844;51.496;6.788;2023-09-19T05:45:00;15.30;1.00
11577;DHT22;5844;51.496;6.788;2023-09-19T05:47:26;15.40;1.00
11577;DHT22;5844;51.496;6.788;2023-09-19T05:49:51;15.40;1.00
11577;DHT22;5844;51.496;6.788;2023-09-19T05:52:18;15.40;1.00
11577;DHT22;5844;51.496;6.788;2023-09-19T05:54:44;15.40;1.00
11577;DHT22;5844;51.496;6.788;2023-09-19T05:57:10;15.40;1.00
11577;DHT22;5844;51.496;6.788;2023-09-19T05:59:37;15.50;1.00
11577;DHT22;5844;51.496;6.788;2023-09-19T06:02:05;15.50;1.00
11577;DHT22;5844;51.496;6.788;2023-09-19T06:04:31;15.50;1.00
11577;DHT22;5844;51.496;6.788;2023-09-19T06:06:57;15.50;1.00
11577;DHT22;5844;51.496;6.788;2023-09-19T06:09:24;15.60;1.00
11577;DHT22;5844;51.496;6.788;2023-09-19T06:11:50;15.60;1.00
11577;DHT22;5844;51.496;6.788;2023-09-19T06:14:16;15.60;1.00
11577;DHT22;5844;51.496;6.788;2023-09-19T06:16:43;15.70;1.00
11577;DHT22;5844;51.496;6.788;2023-09-19T06:19:09;15.70;1.00
11577;DHT22;5844;51.496;6.788;2023-09-19T06:21:36;15.70;1.00
11577;DHT22;5844;51.496;6.788;2023-09-19T06:24:02;15.70;1.00
11577;DHT22;5844;51.496;6.788;2023-09-19T06:26:28;15.70;1.00
11577;DHT22;5844;51.496;6.788;2023-09-19T06:28:55;15.80;1.00
11577;DHT22;5844;51.496;6.788;2023-09-19T06:31:21;15.80;1.00
11577;DHT22;5844;51.496;6.788;2023-09-19T06:33:48;15.80;1.00
11577;DHT22;5844;51.496;6.788;2023-09-19T06:36:14;15.80;1.00
11577;DHT22;5844;51.496;6.788;2023-09-19T06:38:40;15.80;1.00
11577;DHT22;5844;51.496;6.788;2023-09-19T06:41:06;15.80;1.00
11577;DHT22;5844;51.496;6.788;2023-09-19T06:43:35;15.80;1.00
11577;DHT22;5844;51.496;6.788;2023-09-19T06:46:03;15.80;1.00
11577;DHT22;5844;51.496;6.788;2023-09-19T06:48:30;15.90;1.00
11577;DHT22;5844;51.496;6.788;2023-09-19T06:50:56;15.90;1.00
11577;DHT22;5844;51.496;6.788;2023-09-19T06:53:24;15.90;1.00
11577;DHT22;5844;51.496;6.788;2023-09-19T06:55:52;15.90;1.00
11577;DHT22;5844;51.496;6.788;2023-09-19T06:58:18;15.90;1.00
11577;DHT22;5844;51.496;6.788;2023-09-19T07:00:46;15.90;1.00
11577;DHT22;5844;51.496;6.788;2023-09-19T07:03:13;16.00;1.00
11577;DHT22;5844;51.496;6.788;2023-09-19T07:05:40;16.00;1.00
11577;DHT22;5844;51.496;6.788;2023-09-19T07:08:10;16.00;1.00
11577;DHT22;5844;51.496;6.788;2023-09-19T07:10:39;16.10;1.00
11577;DHT22;5844;51.496;6.788;2023-09-19T07:13:07;16.10;1.00
11577;DHT22;5844;51.496;6.788;2023-09-19T07:15:36;16.20;1.00
11577;DHT22;5844;51.496;6.788;2023-09-19T07:18:04;16.20;1.00
11577;DHT22;5844;51.496;6.788;2023-09-19T07:20:31;16.20;1.00
11577;DHT22;5844;51.496;6.788;2023-09-19T07:22:58;16.30;1.00
11577;DHT22;5844;51.496;6.788;2023-09-19T07:25:27;16.40;1.00
11577;DHT22;5844;51.496;6.788;2023-09-19T07:27:53;16.50;1.00
11577;DHT22;5844;51.496;6.788;2023-09-19T07:30:20;16.50;1.00
11577;DHT22;5844;51.496;6.788;2023-09-19T07:32:45;16.60;1.00
11577;DHT22;5844;51.496;6.788;2023-09-19T07:35:11;16.50;1.00
11577;DHT22;5844;51.496;6.788;2023-09-19T07:37:38;16.50;1.00
11577;DHT22;5844;51.496;6.788;2023-09-19T07:40:04;16.60;1.00
11577;DHT22;5844;51.496;6.788;2023-09-19T07:42:35;16.70;1.00
11577;DHT22;5844;51.496;6.788;2023-09-19T07:45:02;16.70;1.00
11577;DHT22;5844;51.496;6.788;2023-09-19T07:47:28;16.80;1.00
11577;DHT22;5844;51.496;6.788;2023-09-19T07:49:55;16.80;1.00
11577;DHT22;5844;51.496;6.788;2023-09-19T07:52:21;16.80;1.00
11577;DHT22;5844;51.496;6.788;2023-09-19T07:54:48;16.90;1.00
11577;DHT22;5844;51.496;6.788;2023-09-19T07:57:15;16.80;1.00
11577;DHT22;5844;51.496;6.788;2023-09-19T07:59:42;16.80;1.00
11577;DHT22;5844;51.496;6.788;2023-09-19T08:02:09;16.80;1.00
11577;DHT22;5844;51.496;6.788;2023-09-19T08:04:44;17.00;1.00
11577;DHT22;5844;51.496;6.788;2023-09-19T08:07:14;16.90;1.00
11577;DHT22;5844;51.496;6.788;2023-09-19T08:09:40;16.90;1.00
11577;DHT22;5844;51.496;6.788;2023-09-19T08:12:06;17.10;1.00
11577;DHT22;5844;51.496;6.788;2023-09-19T08:14:36;17.10;1.00
11577;DHT22;5844;51.496;6.788;2023-09-19T08:17:01;17.10;1.00
11577;DHT22;5844;51.496;6.788;2023-09-19T08:19:27;17.10;1.00
11577;DHT22;5844;51.496;6.788;2023-09-19T08:22:00;17.10;1.00
11577;DHT22;5844;51.496;6.788;2023-09-19T08:24:30;17.20;1.00
11577;DHT22;5844;51.496;6.788;2023-09-19T08:26:57;17.30;1.00
11577;DHT22;5844;51.496;6.788;2023-09-19T08:29:23;17.30;1.00
11577;DHT22;5844;51.496;6.788;2023-09-19T08:31:56;17.50;1.00
11577;DHT22;5844;51.496;6.788;2023-09-19T08:34:23;17.50;1.00
11577;DHT22;5844;51.496;6.788;2023-09-19T08:36:53;17.60;1.00
11577;DHT22;5844;51.496;6.788;2023-09-19T08:39:22;17.80;1.00
11577;DHT22;5844;51.496;6.788;2023-09-19T08:41:48;18.20;1.00
11577;DHT22;5844;51.496;6.788;2023-09-19T08:44:13;18.20;1.00
11577;DHT22;5844;51.496;6.788;2023-09-19T08:46:41;18.00;1.00
11577;DHT22;5844;51.496;6.788;2023-09-19T08:49:36;18.00;1.00
11577;DHT22;5844;51.496;6.788;2023-09-19T08:52:13;18.20;1.00
11577;DHT22;5844;51.496;6.788;2023-09-19T08:54:42;18.30;1.00
11577;DHT22;5844;51.496;6.788;2023-09-19T08:57:10;18.30;1.00
11577;DHT22;5844;51.496;6.788;2023-09-19T08:59:41;18.40;1.00
11577;DHT22;5844;51.496;6.788;2023-09-19T09:02:12;18.40;1.00
11577;DHT22;5844;51.496;6.788;2023-09-19T09:04:42;18.50;1.00
11577;DHT22;5844;51.496;6.788;2023-09-19T09:07:13;18.70;1.00
11577;DHT22;5844;51.496;6.788;2023-09-19T09:09:40;18.90;1.00
11577;DHT22;5844;51.496;6.788;2023-09-19T09:12:12;19.00;1.00
11577;DHT22;5844;51.496;6.788;2023-09-19T09:14:40;19.10;1.00
11577;DHT22;5844;51.496;6.788;2023-09-19T09:17:06;19.10;1.00
11577;DHT22;5844;51.496;6.788;2023-09-19T09:19:32;19.10;1.00
11577;DHT22;5844;51.496;6.788;2023-09-19T09:22:08;19.10;1.00
11577;DHT22;5844;51.496;6.788;2023-09-19T09:24:34;18.90;1.00
11577;DHT22;5844;51.496;6.788;2023-09-19T09:27:04;19.00;1.00
11577;DHT22;5844;51.496;6.788;2023-09-19T09:29:47;19.50;1.00
11577;DHT22;5844;51.496;6.788;2023-09-19T09:32:30;19.70;1.00
11577;DHT22;5844;51.496;6.788;2023-09-19T09:35:00;19.80;1.00
11577;DHT22;5844;51.496;6.788;2023-09-19T09:37:26;20.00;1.00
11577;DHT22;5844;51.496;6.788;2023-09-19T09:40:01;20.20;1.00
11577;DHT22;5844;51.496;6.788;2023-09-19T09:42:42;20.20;1.00
11577;DHT22;5844;51.496;6.788;2023-09-19T09:45:23;19.90;1.00
11577;DHT22;5844;51.496;6.788;2023-09-19T09:47:59;19.60;1.00
11577;DHT22;5844;51.496;6.788;2023-09-19T09:50:29;19.60;1.00
11577;DHT22;5844;51.496;6.788;2023-09-19T09:53:02;19.50;1.00
11577;DHT22;5844;51.496;6.788;2023-09-19T09:55:58;19.40;1.00
11577;DHT22;5844;51.496;6.788;2023-09-19T09:58:28;19.20;1.00
11577;DHT22;5844;51.496;6.788;2023-09-19T10:00:58;19.30;1.00
11577;DHT22;5844;51.496;6.788;2023-09-19T10:03:36;19.10;1.00
11577;DHT22;5844;51.496;6.788;2023-09-19T10:06:07;19.00;1.00
11577;DHT22;5844;51.496;6.788;2023-09-19T10:11:49;18.80;1.00
11577;DHT22;5844;51.496;6.788;2023-09-19T10:14:30;19.20;1.00
11577;DHT22;5844;51.496;6.788;2023-09-19T10:17:02;19.60;1.00
11577;DHT22;5844;51.496;6.788;2023-09-19T10:22:46;19.60;1.00
11577;DHT22;5844;51.496;6.788;2023-09-19T10:25:27;20.40;1.00
11577;DHT22;5844;51.496;6.788;2023-09-19T10:28:00;20.40;1.00
11577;DHT22;5844;51.496;6.788;2023-09-19T10:30:30;20.60;1.00
11577;DHT22;5844;51.496;6.788;2023-09-19T10:33:01;20.60;1.00
11577;DHT22;5844;51.496;6.788;2023-09-19T10:35:28;21.00;1.00
11577;DHT22;5844;51.496;6.788;2023-09-19T10:37:57;21.50;1.00
11577;DHT22;5844;51.496;6.788;2023-09-19T10:40:25;21.60;1.00
11577;DHT22;5844;51.496;6.788;2023-09-19T10:43:01;21.80;1.00
11577;DHT22;5844;51.496;6.788;2023-09-19T10:45:34;22.50;1.00
11577;DHT22;5844;51.496;6.788;2023-09-19T10:48:01;23.10;1.00
11577;DHT22;5844;51.496;6.788;2023-09-19T10:50:35;23.80;1.00
11577;DHT22;5844;51.496;6.788;2023-09-19T10:53:04;24.10;1.00
11577;DHT22;5844;51.496;6.788;2023-09-19T10:55:33;23.90;1.00
11577;DHT22;5844;51.496;6.788;2023-09-19T10:58:01;23.70;1.00
11577;DHT22;5844;51.496;6.788;2023-09-19T11:00:30;23.20;1.00
11577;DHT22;5844;51.496;6.788;2023-09-19T11:05:39;22.70;1.00
11577;DHT22;5844;51.496;6.788;2023-09-19T11:08:07;22.50;1.00
11577;DHT22;5844;51.496;6.788;2023-09-19T11:10:48;22.60;1.00
11577;DHT22;5844;51.496;6.788;2023-09-19T11:13:25;22.70;1.00
11577;DHT22;5844;51.496;6.788;2023-09-19T11:26:47;23.30;1.00
11577;DHT22;5844;51.496;6.788;2023-09-19T11:29:27;23.10;1.00
11577;DHT22;5844;51.496;6.788;2023-09-19T11:31:54;22.70;1.00
11577;DHT22;5844;51.496;6.788;2023-09-19T11:40:08;23.40;1.00
11577;DHT22;5844;51.496;6.788;2023-09-19T11:42:49;22.70;1.00
11577;DHT22;5844;51.496;6.788;2023-09-19T11:48:15;22.80;1.00
11577;DHT22;5844;51.496;6.788;2023-09-19T11:50:45;22.30;1.00
11577;DHT22;5844;51.496;6.788;2023-09-19T11:53:13;22.30;1.00
11577;DHT22;5844;51.496;6.788;2023-09-19T11:55:41;22.90;1.00
11577;DHT22;5844;51.496;6.788;2023-09-19T11:58:10;23.50;1.00
11577;DHT22;5844;51.496;6.788;2023-09-19T12:00:39;23.70;1.00
11577;DHT22;5844;51.496;6.788;2023-09-19T12:03:10;23.90;1.00
11577;DHT22;5844;51.496;6.788;2023-09-19T12:05:37;24.00;1.00
11577;DHT22;5844;51.496;6.788;2023-09-19T12:08:04;23.90;1.00
11577;DHT22;5844;51.496;6.788;2023-09-19T12:10:33;23.90;1.00
11577;DHT22;5844;51.496;6.788;2023-09-19T12:12:59;24.00;1.00
11577;DHT22;5844;51.496;6.788;2023-09-19T12:15:27;24.40;1.00
11577;DHT22;5844;51.496;6.788;2023-09-19T12:17:59;24.10;1.00
11577;DHT22;5844;51.496;6.788;2023-09-19T12:20:41;24.20;1.00
11577;DHT22;5844;51.496;6.788;2023-09-19T12:23:13;25.10;1.00
11577;DHT22;5844;51.496;6.788;2023-09-19T12:25:45;26.20;1.00
11577;DHT22;5844;51.496;6.788;2023-09-19T12:28:16;26.30;1.00
11577;DHT22;5844;51.496;6.788;2023-09-19T12:30:47;26.40;1.00
11577;DHT22;5844;51.496;6.788;2023-09-19T12:33:19;27.00;1.00
11577;DHT22;5844;51.496;6.788;2023-09-19T12:35:46;26.50;1.00
11577;DHT22;5844;51.496;6.788;2023-09-19T12:38:25;26.40;1.00
11577;DHT22;5844;51.496;6.788;2023-09-19T12:40:57;26.30;1.00
11577;DHT22;5844;51.496;6.788;2023-09-19T12:43:28;26.20;1.00
11577;DHT22;5844;51.496;6.788;2023-09-19T12:45:58;26.30;1.00
11577;DHT22;5844;51.496;6.788;2023-09-19T12:48:26;26.60;1.00
11577;DHT22;5844;51.496;6.788;2023-09-19T12:51:13;27.30;1.00
11577;DHT22;5844;51.496;6.788;2023-09-19T12:53:41;26.50;1.00
11577;DHT22;5844;51.496;6.788;2023-09-19T12:56:17;25.80;1.00
11577;DHT22;5844;51.496;6.788;2023-09-19T12:58:54;25.70;1.00
11577;DHT22;5844;51.496;6.788;2023-09-19T13:01:20;25.60;1.00
11577;DHT22;5844;51.496;6.788;2023-09-19T13:04:11;25.00;1.00
11577;DHT22;5844;51.496;6.788;2023-09-19T13:06:48;24.00;1.00
11577;DHT22;5844;51.496;6.788;2023-09-19T13:09:20;23.10;1.00
11577;DHT22;5844;51.496;6.788;2023-09-19T13:11:47;23.30;1.00
11577;DHT22;5844;51.496;6.788;2023-09-19T13:17:02;25.20;1.00
11577;DHT22;5844;51.496;6.788;2023-09-19T13:22:45;25.30;1.00
11577;DHT22;5844;51.496;6.788;2023-09-19T13:25:18;24.20;1.00
11577;DHT22;5844;51.496;6.788;2023-09-19T13:27:46;23.80;1.00
11577;DHT22;5844;51.496;6.788;2023-09-19T13:30:13;23.30;1.00
11577;DHT22;5844;51.496;6.788;2023-09-19T13:32:39;22.70;1.00
11577;DHT22;5844;51.496;6.788;2023-09-19T13:35:07;22.40;1.00
11577;DHT22;5844;51.496;6.788;2023-09-19T13:37:37;22.00;1.00
11577;DHT22;5844;51.496;6.788;2023-09-19T13:40:10;22.20;1.00
11577;DHT22;5844;51.496;6.788;2023-09-19T13:42:36;21.90;1.00
11577;DHT22;5844;51.496;6.788;2023-09-19T13:45:03;21.80;1.00
11577;DHT22;5844;51.496;6.788;2023-09-19T13:47:33;21.60;1.00
11577;DHT22;5844;51.496;6.788;2023-09-19T13:50:02;21.70;1.00
11577;DHT22;5844;51.496;6.788;2023-09-19T13:52:30;21.40;1.00
11577;DHT22;5844;51.496;6.788;2023-09-19T13:54:56;21.20;1.00
11577;DHT22;5844;51.496;6.788;2023-09-19T13:57:26;21.30;1.00
11577;DHT22;5844;51.496;6.788;2023-09-19T13:59:55;21.20;1.00
11577;DHT22;5844;51.496;6.788;2023-09-19T14:02:21;21.40;1.00
11577;DHT22;5844;51.496;6.788;2023-09-19T14:04:50;21.60;1.00
11577;DHT22;5844;51.496;6.788;2023-09-19T14:07:16;21.90;1.00
11577;DHT22;5844;51.496;6.788;2023-09-19T14:09:44;22.00;1.00
11577;DHT22;5844;51.496;6.788;2023-09-19T14:12:10;21.50;1.00
11577;DHT22;5844;51.496;6.788;2023-09-19T14:14:36;21.20;1.00
11577;DHT22;5844;51.496;6.788;2023-09-19T14:17:04;20.90;1.00
11577;DHT22;5844;51.496;6.788;2023-09-19T14:19:30;20.80;1.00
11577;DHT22;5844;51.496;6.788;2023-09-19T14:21:56;20.70;1.00
11577;DHT22;5844;51.496;6.788;2023-09-19T14:24:22;20.60;1.00
11577;DHT22;5844;51.496;6.788;2023-09-19T14:26:48;20.60;1.00
11577;DHT22;5844;51.496;6.788;2023-09-19T14:29:15;20.50;1.00
11577;DHT22;5844;51.496;6.788;2023-09-19T14:31:41;20.50;1.00
11577;DHT22;5844;51.496;6.788;2023-09-19T14:34:08;20.80;1.00
11577;DHT22;5844;51.496;6.788;2023-09-19T14:36:36;21.00;1.00
11577;DHT22;5844;51.496;6.788;2023-09-19T14:39:04;20.80;1.00
11577;DHT22;5844;51.496;6.788;2023-09-19T14:41:30;20.80;1.00
11577;DHT22;5844;51.496;6.788;2023-09-19T14:43:56;20.80;1.00
11577;DHT22;5844;51.496;6.788;2023-09-19T14:46:22;20.70;1.00
11577;DHT22;5844;51.496;6.788;2023-09-19T14:48:51;20.50;1.00
11577;DHT22;5844;51.496;6.788;2023-09-19T14:51:18;20.40;1.00
11577;DHT22;5844;51.496;6.788;2023-09-19T14:53:47;20.40;1.00
11577;DHT22;5844;51.496;6.788;2023-09-19T14:56:13;20.60;1.00
11577;DHT22;5844;51.496;6.788;2023-09-19T14:58:43;20.60;1.00
11577;DHT22;5844;51.496;6.788;2023-09-19T15:01:11;20.50;1.00
11577;DHT22;5844;51.496;6.788;2023-09-19T15:03:38;20.40;1.00
11577;DHT22;5844;51.496;6.788;2023-09-19T15:06:06;20.20;1.00
11577;DHT22;5844;51.496;6.788;2023-09-19T15:08:35;20.10;1.00
11577;DHT22;5844;51.496;6.788;2023-09-19T15:11:01;20.10;1.00
11577;DHT22;5844;51.496;6.788;2023-09-19T15:13:31;20.20;1.00
11577;DHT22;5844;51.496;6.788;2023-09-19T15:16:05;20.30;1.00
11577;DHT22;5844;51.496;6.788;2023-09-19T15:18:34;20.30;1.00
11577;DHT22;5844;51.496;6.788;2023-09-19T15:21:12;20.40;1.00
11577;DHT22;5844;51.496;6.788;2023-09-19T15:23:40;20.50;1.00
11577;DHT22;5844;51.496;6.788;2023-09-19T15:26:07;20.40;1.00
11577;DHT22;5844;51.496;6.788;2023-09-19T15:28:34;20.50;1.00
11577;DHT22;5844;51.496;6.788;2023-09-19T15:31:08;20.50;1.00
11577;DHT22;5844;51.496;6.788;2023-09-19T15:33:34;20.50;1.00
11577;DHT22;5844;51.496;6.788;2023-09-19T15:36:08;20.70;1.00
11577;DHT22;5844;51.496;6.788;2023-09-19T15:41:19;20.80;1.00
11577;DHT22;5844;51.496;6.788;2023-09-19T15:43:45;20.90;1.00
11577;DHT22;5844;51.496;6.788;2023-09-19T15:46:11;20.90;1.00
11577;DHT22;5844;51.496;6.788;2023-09-19T15:48:37;20.80;1.00
11577;DHT22;5844;51.496;6.788;2023-09-19T15:51:03;20.90;1.00
11577;DHT22;5844;51.496;6.788;2023-09-19T15:53:44;20.90;1.00
11577;DHT22;5844;51.496;6.788;2023-09-19T15:56:11;20.80;1.00
11577;DHT22;5844;51.496;6.788;2023-09-19T15:58:37;20.80;1.00
11577;DHT22;5844;51.496;6.788;2023-09-19T16:01:08;20.80;1.00
11577;DHT22;5844;51.496;6.788;2023-09-19T16:03:38;20.60;1.00
11577;DHT22;5844;51.496;6.788;2023-09-19T16:06:17;20.60;1.00
11577;DHT22;5844;51.496;6.788;2023-09-19T16:08:45;20.60;1.00
11577;DHT22;5844;51.496;6.788;2023-09-19T16:11:12;20.40;1.00
11577;DHT22;5844;51.496;6.788;2023-09-19T16:13:39;20.30;1.00
11577;DHT22;5844;51.496;6.788;2023-09-19T16:16:06;20.20;1.00
11577;DHT22;5844;51.496;6.788;2023-09-19T16:18:33;20.10;1.00
11577;DHT22;5844;51.496;6.788;2023-09-19T16:21:06;20.10;1.00
11577;DHT22;5844;51.496;6.788;2023-09-19T16:23:34;20.10;1.00
11577;DHT22;5844;51.496;6.788;2023-09-19T16:26:09;20.10;1.00
11577;DHT22;5844;51.496;6.788;2023-09-19T16:28:38;20.10;1.00
11577;DHT22;5844;51.496;6.788;2023-09-19T16:31:04;20.00;1.00
11577;DHT22;5844;51.496;6.788;2023-09-19T16:33:32;20.00;1.00
11577;DHT22;5844;51.496;6.788;2023-09-19T16:35:58;20.00;1.00
11577;DHT22;5844;51.496;6.788;2023-09-19T16:38:26;20.00;1.00
11577;DHT22;5844;51.496;6.788;2023-09-19T16:40:57;20.00;1.00
11577;DHT22;5844;51.496;6.788;2023-09-19T16:43:27;20.00;1.00
11577;DHT22;5844;51.496;6.788;2023-09-19T16:46:01;20.20;1.00
11577;DHT22;5844;51.496;6.788;2023-09-19T16:48:28;20.10;1.00
11577;DHT22;5844;51.496;6.788;2023-09-19T16:50:56;20.10;1.00
11577;DHT22;5844;51.496;6.788;2023-09-19T16:53:24;20.10;1.00